Time;durP1;ratioP1;P1;durP2;ratioP2;P2;SDS_P1;SDS_P2;PMS_P1;PMS_P2;Temp;Humidity;BMP_temperature;BMP_pressure;BME280_temperature;BME280_humidity;BME280_pressure;Samples;Min_cycle;Max_cycle;Signal;HPM_P1;HPM_P2
2021/01/06 00:00:08;;;;;;;39.17;16.52;;;2.60;99.90;;;;;;4999477;28;20053;-74
2021/01/06 00:02:38;;;;;;;38.70;16.98;;;2.60;99.90;;;;;;5014446;28;20065;-74
2021/01/06 00:05:09;;;;;;;38.55;16.27;;;2.60;99.90;;;;;;4997209;28;23362;-73
2021/01/06 00:07:35;;;;;;;36.17;16.10;;;3.00;99.90;;;;;;4997630;28;20037;-74
2021/01/06 00:10:01;;;;;;;39.10;16.33;;;2.50;99.90;;;;;;4998257;28;20051;-74
2021/01/06 00:12:26;;;;;;;40.05;16.02;;;2.50;99.90;;;;;;5003976;28;20049;-73
2021/01/06 00:14:52;;;;;;;37.35;17.15;;;2.50;99.90;;;;;;5016763;28;20101;-73
2021/01/06 00:17:17;;;;;;;31.42;15.02;;;2.50;99.90;;;;;;5041192;28;20037;-73
2021/01/06 00:19:43;;;;;;;35.10;15.45;;;2.60;99.90;;;;;;5003671;28;20049;-73
2021/01/06 00:22:08;;;;;;;36.05;15.25;;;2.60;99.90;;;;;;5003344;28;20513;-73
2021/01/06 00:24:34;;;;;;;38.00;16.45;;;2.60;99.90;;;;;;4999833;28;20064;-73
2021/01/06 00:26:59;;;;;;;36.38;16.17;;;2.50;99.90;;;;;;5001905;28;21714;-73
2021/01/06 00:29:25;;;;;;;36.72;16.13;;;2.50;99.90;;;;;;5000074;28;20029;-73
2021/01/06 00:31:50;;;;;;;35.33;15.07;;;2.50;99.90;;;;;;5000968;28;20320;-74
2021/01/06 00:34:16;;;;;;;35.10;15.50;;;2.40;99.90;;;;;;5001821;28;20037;-74
2021/01/06 00:36:41;;;;;;;32.60;15.07;;;2.40;99.90;;;;;;5003146;28;20197;-75
2021/01/06 00:39:07;;;;;;;36.42;15.55;;;2.40;99.90;;;;;;5016655;28;20072;-74
2021/01/06 00:41:35;;;;;;;37.38;15.90;;;2.40;99.90;;;;;;5002349;28;20093;-74
2021/01/06 00:44:02;;;;;;;37.40;15.23;;;2.40;99.90;;;;;;5000545;28;20042;-74
2021/01/06 00:46:33;;;;;;;36.42;15.98;;;2.40;99.90;;;;;;4998700;28;20046;-74
2021/01/06 00:49:00;;;;;;;33.13;14.02;;;2.40;99.90;;;;;;5004199;28;20045;-74
2021/01/06 00:51:27;;;;;;;38.33;16.08;;;2.40;99.90;;;;;;5001085;28;20030;-74
2021/01/06 00:53:52;;;;;;;31.20;13.98;;;2.20;99.90;;;;;;5001569;28;20693;-75
2021/01/06 00:56:29;;;;;;;35.65;14.30;;;2.20;99.90;;;;;;4999085;28;20045;-74
2021/01/06 00:58:55;;;;;;;44.58;16.90;;;2.30;99.90;;;;;;5001758;28;20156;-72
2021/01/06 01:01:22;;;;;;;38.13;15.75;;;2.20;99.90;;;;;;5002145;28;20045;-73
2021/01/06 01:03:47;;;;;;;37.72;16.00;;;2.20;99.90;;;;;;5001089;28;22053;-73
2021/01/06 01:06:25;;;;;;;36.38;15.57;;;2.20;99.90;;;;;;4999458;28;20442;-73
2021/01/06 01:08:50;;;;;;;34.33;13.80;;;2.30;99.90;;;;;;5000704;28;20193;-73
2021/01/06 01:11:16;;;;;;;33.47;14.07;;;2.20;99.90;;;;;;5002025;28;20128;-73
2021/01/06 01:13:41;;;;;;;34.75;14.52;;;2.20;99.90;;;;;;4998852;28;20127;-73
2021/01/06 01:16:07;;;;;;;32.85;13.88;;;2.20;99.90;;;;;;4998040;28;20048;-73
2021/01/06 01:18:32;;;;;;;35.92;14.75;;;2.20;99.90;;;;;;4999324;28;20042;-74
2021/01/06 01:20:59;;;;;;;38.33;14.27;;;2.20;99.90;;;;;;5000825;28;20951;-74
2021/01/06 01:23:27;;;;;;;32.88;13.73;;;2.20;99.90;;;;;;5002239;28;20088;-74
2021/01/06 01:25:53;;;;;;;32.63;14.73;;;2.20;99.90;;;;;;5000125;28;20046;-73
2021/01/06 01:28:20;;;;;;;30.65;13.13;;;2.30;99.90;;;;;;5011684;28;20060;-73
2021/01/06 01:30:47;;;;;;;39.15;15.10;;;2.30;99.90;;;;;;4988621;28;20092;-73
2021/01/06 01:33:14;;;;;;;30.50;13.15;;;2.30;99.90;;;;;;5000960;28;20429;-74
2021/01/06 01:35:39;;;;;;;27.15;12.68;;;2.60;99.90;;;;;;4999580;28;20297;-73
2021/01/06 01:38:06;;;;;;;37.42;14.20;;;2.20;99.90;;;;;;5000413;28;20124;-74
2021/01/06 01:40:34;;;;;;;29.90;13.63;;;2.20;99.90;;;;;;5001365;28;20038;-74
2021/01/06 01:43:18;;;;;;;30.02;12.48;;;2.10;99.90;;;;;;5000655;28;20041;-74
2021/01/06 01:45:46;;;;;;;29.55;12.57;;;2.20;99.90;;;;;;4997346;28;20041;-74
2021/01/06 01:48:23;;;;;;;29.05;13.57;;;2.10;99.90;;;;;;5014067;28;20397;-74
2021/01/06 01:50:51;;;;;;;30.65;13.38;;;2.20;99.90;;;;;;4999964;28;20525;-74
2021/01/06 01:53:27;;;;;;;30.55;12.23;;;2.10;99.90;;;;;;5000456;28;20041;-74
2021/01/06 01:55:53;;;;;;;29.95;13.02;;;2.20;99.90;;;;;;4999336;28;20041;-74
2021/01/06 01:58:23;;;;;;;28.27;12.73;;;2.10;99.90;;;;;;4998504;28;20033;-74
2021/01/06 02:00:49;;;;;;;28.05;13.13;;;2.10;99.90;;;;;;4991890;28;20299;-74
2021/01/06 02:03:45;;;;;;;32.75;12.98;;;2.10;99.90;;;;;;4999617;28;20799;-74
2021/01/06 02:06:20;;;;;;;28.63;12.88;;;2.10;99.90;;;;;;4993237;28;20052;-74
2021/01/06 02:08:52;;;;;;;25.77;12.25;;;2.10;99.90;;;;;;5000566;28;20073;-74
2021/01/06 02:11:35;;;;;;;30.10;13.07;;;2.10;99.90;;;;;;4999794;28;20595;-74
2021/01/06 02:14:15;;;;;;;28.13;11.57;;;2.10;99.90;;;;;;4987390;28;20584;-74
2021/01/06 02:16:49;;;;;;;30.27;13.52;;;2.20;99.90;;;;;;4998768;28;20608;-74
2021/01/06 02:19:18;;;;;;;31.70;12.50;;;2.10;99.90;;;;;;5000265;28;20127;-74
2021/01/06 02:21:44;;;;;;;23.92;11.77;;;2.10;99.90;;;;;;4998384;28;20057;-74
2021/01/06 02:24:10;;;;;;;26.95;12.48;;;2.10;99.90;;;;;;5001207;28;20684;-74
2021/01/06 02:26:35;;;;;;;23.77;12.50;;;2.10;99.90;;;;;;4997896;28;20565;-74
2021/01/06 02:29:01;;;;;;;28.92;12.27;;;2.10;99.90;;;;;;4998686;28;20064;-74
2021/01/06 02:31:28;;;;;;;28.08;12.57;;;2.00;99.90;;;;;;5000594;28;20370;-75
2021/01/06 02:33:54;;;;;;;29.15;11.90;;;2.00;99.90;;;;;;5015418;28;20549;-74
2021/01/06 02:36:21;;;;;;;26.88;11.15;;;2.00;99.90;;;;;;4998170;28;20580;-74
2021/01/06 02:38:47;;;;;;;28.73;12.05;;;2.00;99.90;;;;;;4996745;28;20071;-74
2021/01/06 02:41:13;;;;;;;26.20;11.82;;;1.60;99.90;;;;;;4999928;28;20041;-74
2021/01/06 02:43:39;;;;;;;23.80;12.10;;;2.00;99.90;;;;;;4998374;28;20215;-73
2021/01/06 02:46:05;;;;;;;31.05;12.27;;;2.00;99.90;;;;;;4998512;28;20049;-74
2021/01/06 02:48:31;;;;;;;33.30;13.25;;;1.90;99.90;;;;;;5008047;28;20053;-74
2021/01/06 02:51:02;;;;;;;32.53;13.82;;;1.90;99.90;;;;;;5015713;28;20048;-73
2021/01/06 02:53:40;;;;;;;28.30;12.57;;;1.90;99.90;;;;;;5012166;28;20044;-74
2021/01/06 02:56:06;;;;;;;25.60;11.90;;;1.90;99.90;;;;;;5001668;28;20037;-74
2021/01/06 02:58:33;;;;;;;30.20;11.52;;;1.80;99.90;;;;;;4994867;28;20041;-74
2021/01/06 03:00:59;;;;;;;36.55;11.45;;;2.20;99.90;;;;;;5001027;28;20124;-74
2021/01/06 03:03:30;;;;;;;30.65;13.05;;;1.60;99.90;;;;;;4999434;28;20042;-75
2021/01/06 03:06:11;;;;;;;27.48;12.90;;;1.80;99.90;;;;;;5000523;28;20124;-74
2021/01/06 03:08:38;;;;;;;28.75;12.30;;;1.80;99.90;;;;;;4995712;28;20037;-73
2021/01/06 03:11:05;;;;;;;24.25;11.60;;;1.80;99.90;;;;;;4978496;28;20080;-74
2021/01/06 03:13:31;;;;;;;28.20;13.18;;;1.70;99.90;;;;;;4978740;28;20128;-74
2021/01/06 03:15:57;;;;;;;21.23;10.48;;;1.70;99.90;;;;;;4978940;28;22702;-74
2021/01/06 03:18:23;;;;;;;26.92;12.98;;;1.70;99.90;;;;;;4979442;28;20068;-74
2021/01/06 03:20:51;;;;;;;27.52;11.20;;;1.70;99.90;;;;;;4976678;28;20034;-74
2021/01/06 03:23:37;;;;;;;27.20;13.50;;;1.70;99.90;;;;;;4977987;28;20045;-74
2021/01/06 03:26:08;;;;;;;24.73;12.27;;;1.60;99.90;;;;;;4977763;28;20038;-74
2021/01/06 03:28:35;;;;;;;27.52;12.82;;;1.60;99.90;;;;;;4980741;28;20046;-74
2021/01/06 03:31:04;;;;;;;24.08;12.00;;;1.50;99.90;;;;;;4978717;28;20041;-74
2021/01/06 03:33:56;;;;;;;25.42;11.77;;;1.50;99.90;;;;;;4993955;28;20100;-74
2021/01/06 03:36:27;;;;;;;24.13;11.20;;;1.50;99.90;;;;;;4979160;28;20037;-74
2021/01/06 03:39:00;;;;;;;24.15;11.55;;;1.50;99.90;;;;;;4999242;28;20073;-74
2021/01/06 03:41:28;;;;;;;29.33;13.05;;;1.50;99.90;;;;;;4993696;28;20029;-74
2021/01/06 03:43:58;;;;;;;23.58;11.80;;;1.50;99.90;;;;;;4994803;28;20039;-74
2021/01/06 03:46:32;;;;;;;27.83;13.80;;;1.50;99.90;;;;;;4995547;28;20343;-74
2021/01/06 03:48:58;;;;;;;35.13;14.25;;;1.50;99.90;;;;;;5001810;28;20489;-74
2021/01/06 03:51:48;;;;;;;30.73;14.45;;;1.50;99.90;;;;;;5002318;28;20622;-74
2021/01/06 03:54:17;;;;;;;32.63;12.55;;;1.50;99.90;;;;;;5002594;28;20714;-74
2021/01/06 03:56:44;;;;;;;30.38;13.93;;;1.50;99.90;;;;;;4998094;28;20041;-74
2021/01/06 03:59:21;;;;;;;26.77;12.85;;;1.50;99.90;;;;;;4983756;28;20046;-74
2021/01/06 04:01:49;;;;;;;26.92;13.32;;;1.50;99.90;;;;;;4993287;28;20034;-74
2021/01/06 04:04:23;;;;;;;23.33;12.68;;;1.60;99.90;;;;;;5017044;28;20050;-75
2021/01/06 04:06:51;;;;;;;31.35;15.05;;;0.90;99.90;;;;;;4999907;28;20052;-74
2021/01/06 04:09:30;;;;;;;30.55;14.20;;;1.60;99.90;;;;;;5003515;28;20597;-73
2021/01/06 04:12:08;;;;;;;34.80;14.00;;;1.60;99.90;;;;;;4990220;28;20081;-73
2021/01/06 04:14:34;;;;;;;29.13;13.57;;;1.60;99.90;;;;;;4982026;28;20696;-74
2021/01/06 04:17:27;;;;;;;29.55;13.25;;;1.60;99.90;;;;;;4983148;28;20133;-74
2021/01/06 04:20:06;;;;;;;25.83;12.90;;;1.50;99.90;;;;;;4983162;28;20145;-74
2021/01/06 04:22:44;;;;;;;29.17;12.98;;;1.60;99.90;;;;;;4982488;28;20073;-73
2021/01/06 04:25:34;;;;;;;30.63;14.30;;;1.50;99.90;;;;;;4981639;28;20080;-74
2021/01/06 04:28:23;;;;;;;32.80;13.18;;;1.50;99.90;;;;;;4981353;28;20049;-73
2021/01/06 04:30:52;;;;;;;29.90;13.30;;;1.50;99.90;;;;;;4982281;28;20120;-73
2021/01/06 04:33:20;;;;;;;34.47;14.65;;;1.50;99.90;;;;;;4996493;28;20073;-74
2021/01/06 04:35:48;;;;;;;32.05;13.57;;;1.50;99.90;;;;;;4982672;28;20046;-74
2021/01/06 04:38:23;;;;;;;37.22;15.27;;;1.50;99.90;;;;;;4980402;28;20247;-73
2021/01/06 04:40:53;;;;;;;29.65;12.38;;;1.50;99.90;;;;;;4983412;28;20051;-74
2021/01/06 04:43:25;;;;;;;37.45;15.93;;;1.50;99.90;;;;;;5000517;28;20056;-74
2021/01/06 04:46:36;;;;;;;30.50;14.00;;;1.50;99.90;;;;;;4986889;28;20038;-73
2021/01/06 04:49:20;;;;;;;34.50;14.00;;;1.50;99.90;;;;;;4981132;28;20065;-73
2021/01/06 04:52:04;;;;;;;31.52;14.27;;;1.50;99.90;;;;;;4981126;28;20042;-73
2021/01/06 04:54:56;;;;;;;37.47;14.43;;;1.50;99.90;;;;;;4980446;28;20109;-73
2021/01/06 04:57:52;;;;;;;36.88;15.02;;;1.50;99.90;;;;;;4980836;28;20085;-73
2021/01/06 05:00:49;;;;;;;32.53;14.88;;;1.20;99.90;;;;;;4967904;28;20045;-74
2021/01/06 05:03:36;;;;;;;33.90;12.98;;;1.60;99.90;;;;;;4978667;28;20041;-74
2021/01/06 05:06:28;;;;;;;31.13;14.57;;;1.60;99.90;;;;;;4978647;28;20052;-73
2021/01/06 05:08:58;;;;;;;34.60;14.73;;;1.60;99.90;;;;;;4979236;28;20038;-73
2021/01/06 05:11:45;;;;;;;32.50;11.88;;;1.50;99.90;;;;;;4979560;28;20636;-73
2021/01/06 05:14:15;;;;;;;29.38;13.25;;;1.50;99.90;;;;;;4982817;28;20193;-73
2021/01/06 05:16:44;;;;;;;34.20;14.07;;;1.50;99.90;;;;;;4977494;28;20172;-73
2021/01/06 05:19:22;;;;;;;39.78;13.70;;;1.50;99.90;;;;;;4985360;28;20037;-73
2021/01/06 05:21:49;;;;;;;31.13;13.55;;;1.50;99.90;;;;;;5011417;28;20052;-73
2021/01/06 05:24:39;;;;;;;31.00;13.10;;;1.60;99.90;;;;;;5016045;28;20045;-73
2021/01/06 05:27:13;;;;;;;31.75;12.82;;;1.60;99.90;;;;;;4987113;28;20092;-73
2021/01/06 05:30:00;;;;;;;31.20;13.52;;;1.60;99.90;;;;;;4999300;28;20124;-74
2021/01/06 05:32:39;;;;;;;28.73;12.68;;;1.50;99.90;;;;;;4999235;28;20044;-74
2021/01/06 05:35:13;;;;;;;25.63;11.52;;;1.50;99.90;;;;;;4998375;28;20098;-74
2021/01/06 05:37:39;;;;;;;26.52;11.88;;;1.60;99.90;;;;;;4997214;28;20517;-74
2021/01/06 05:40:11;;;;;;;26.20;11.93;;;1.60;99.90;;;;;;4999307;28;20041;-74
2021/01/06 05:42:53;;;;;;;32.05;12.40;;;1.60;99.90;;;;;;4998482;28;20049;-74
2021/01/06 05:45:25;;;;;;;27.58;12.20;;;1.60;99.90;;;;;;4997061;28;20041;-74
2021/01/06 05:47:58;;;;;;;28.48;11.73;;;1.60;99.90;;;;;;4995327;28;20771;-74
2021/01/06 05:50:30;;;;;;;22.10;11.35;;;1.60;99.90;;;;;;4997729;28;20506;-74
2021/01/06 05:53:01;;;;;;;29.17;10.98;;;1.60;99.90;;;;;;4998656;28;20375;-74
2021/01/06 05:55:30;;;;;;;24.33;11.05;;;1.60;99.90;;;;;;4996893;28;20045;-74
2021/01/06 05:58:19;;;;;;;22.27;10.93;;;1.70;99.90;;;;;;4998461;28;20060;-74
2021/01/06 06:00:45;;;;;;;20.58;10.23;;;1.60;99.90;;;;;;4996746;28;20068;-74
2021/01/06 06:03:29;;;;;;;23.17;11.80;;;1.60;99.90;;;;;;5000627;28;20721;-74
2021/01/06 06:06:17;;;;;;;25.20;10.80;;;1.60;99.90;;;;;;5014736;28;20041;-74
2021/01/06 06:08:50;;;;;;;25.45;11.63;;;1.60;99.90;;;;;;4974108;28;20037;-74
2021/01/06 06:11:50;;;;;;;30.60;11.07;;;1.60;99.90;;;;;;5001970;28;20533;-74
2021/01/06 06:14:47;;;;;;;23.48;10.43;;;1.60;99.90;;;;;;5000122;28;20064;-74
2021/01/06 06:17:28;;;;;;;19.80;10.30;;;1.60;99.90;;;;;;4997029;28;20069;-74
2021/01/06 06:20:22;;;;;;;23.13;9.52;;;1.60;99.90;;;;;;5002240;28;20507;-74
2021/01/06 06:23:03;;;;;;;20.45;10.25;;;1.60;99.90;;;;;;5002748;28;20037;-74
2021/01/06 06:25:32;;;;;;;20.20;9.82;;;1.60;99.90;;;;;;4999531;28;20045;-74
2021/01/06 06:28:20;;;;;;;23.10;10.15;;;1.60;99.90;;;;;;4999564;28;20085;-74
2021/01/06 06:31:11;;;;;;;23.05;10.20;;;1.60;99.90;;;;;;5000363;28;20042;-73
2021/01/06 06:33:36;;;;;;;19.15;9.32;;;1.60;99.90;;;;;;5000711;28;20171;-74
2021/01/06 06:36:18;;;;;;;25.08;10.77;;;1.60;99.90;;;;;;5001355;28;20310;-74
2021/01/06 06:38:45;;;;;;;23.23;10.98;;;1.60;99.90;;;;;;4999886;28;20120;-74
2021/01/06 06:41:29;;;;;;;21.70;10.07;;;1.50;99.90;;;;;;5001539;28;20041;-74
2021/01/06 06:44:17;;;;;;;21.48;9.90;;;1.60;99.90;;;;;;4999611;28;20040;-74
2021/01/06 06:46:43;;;;;;;21.30;10.57;;;1.60;99.90;;;;;;4998353;28;20060;-74
2021/01/06 06:49:24;;;;;;;20.65;9.77;;;1.60;99.90;;;;;;5000699;28;20045;-74
2021/01/06 06:51:58;;;;;;;21.33;9.27;;;1.60;99.90;;;;;;4999698;28;20037;-74
2021/01/06 06:54:44;;;;;;;22.00;9.95;;;1.60;99.90;;;;;;4998326;28;20038;-74
2021/01/06 06:57:29;;;;;;;25.45;9.65;;;1.60;99.90;;;;;;5000908;28;20037;-74
2021/01/06 07:00:01;;;;;;;22.42;10.43;;;1.50;99.90;;;;;;5001504;28;20253;-74
2021/01/06 07:02:27;;;;;;;21.52;9.50;;;1.50;99.90;;;;;;4999996;28;20713;-74
2021/01/06 07:04:57;;;;;;;19.92;9.35;;;1.50;99.90;;;;;;4995491;28;20041;-74
2021/01/06 07:07:41;;;;;;;19.52;8.85;;;1.60;99.90;;;;;;4994583;28;20057;-75
2021/01/06 07:10:29;;;;;;;23.17;9.60;;;1.50;99.90;;;;;;4995133;28;20321;-74
2021/01/06 07:13:01;;;;;;;20.92;8.73;;;1.50;99.90;;;;;;4976877;28;20037;-74
2021/01/06 07:15:47;;;;;;;20.83;8.75;;;1.50;99.90;;;;;;4977232;28;20061;-74
2021/01/06 07:18:34;;;;;;;18.98;9.02;;;1.50;99.90;;;;;;4978650;28;20037;-74
2021/01/06 07:21:11;;;;;;;23.38;8.98;;;1.50;99.90;;;;;;4978218;28;20121;-73
2021/01/06 07:24:07;;;;;;;23.98;9.68;;;1.50;99.90;;;;;;4976945;28;20042;-74
2021/01/06 07:26:39;;;;;;;16.50;8.52;;;1.60;99.90;;;;;;4977929;28;20050;-74
2021/01/06 07:29:08;;;;;;;18.27;9.18;;;1.60;99.90;;;;;;4979272;28;20120;-74
2021/01/06 07:31:58;;;;;;;19.42;9.63;;;1.50;99.90;;;;;;4972902;28;20034;-74
2021/01/06 07:34:37;;;;;;;19.38;9.02;;;1.60;99.90;;;;;;4978293;28;20187;-74
2021/01/06 07:37:05;;;;;;;15.32;8.32;;;1.60;99.90;;;;;;4978223;28;20042;-74
2021/01/06 07:39:35;;;;;;;21.58;9.20;;;1.60;99.90;;;;;;4978445;28;20440;-75
2021/01/06 07:42:05;;;;;;;18.23;8.70;;;1.60;99.90;;;;;;4980747;28;20042;-74
2021/01/06 07:44:36;;;;;;;19.15;8.32;;;1.60;99.90;;;;;;4994634;28;20034;-75
2021/01/06 07:47:02;;;;;;;16.65;7.60;;;1.60;99.90;;;;;;4980499;28;20042;-75
2021/01/06 07:49:56;;;;;;;19.25;8.43;;;1.70;99.90;;;;;;4980188;28;20030;-75
2021/01/06 07:52:52;;;;;;;17.23;7.97;;;1.70;99.90;;;;;;4996555;28;20042;-75
2021/01/06 07:55:36;;;;;;;17.90;9.05;;;1.70;99.90;;;;;;5000631;28;20049;-74
2021/01/06 07:58:16;;;;;;;18.73;8.80;;;1.70;99.90;;;;;;5025045;23;20112;-79
2021/01/06 08:00:48;;;;;;;19.60;8.63;;;1.70;99.90;;;;;;4992472;28;20054;-80
2021/01/06 08:03:21;;;;;;;16.35;8.00;;;1.70;99.90;;;;;;4972854;28;20106;-80
2021/01/06 08:06:01;;;;;;;17.15;8.43;;;1.60;99.90;;;;;;4994835;28;20578;-81
2021/01/06 08:08:30;;;;;;;19.33;8.50;;;1.60;99.90;;;;;;4980899;28;20096;-81
2021/01/06 08:11:10;;;;;;;18.63;8.52;;;1.70;99.90;;;;;;4985635;28;20038;-79
2021/01/06 08:13:54;;;;;;;15.70;8.63;;;1.60;99.90;;;;;;4990572;28;20072;-80
2021/01/06 08:17:00;;;;;;;20.60;8.40;;;1.60;99.90;;;;;;4992855;28;20045;-81
2021/01/06 08:19:33;;;;;;;23.20;9.73;;;1.70;99.90;;;;;;5005859;28;20041;-81
2021/01/06 08:22:02;;;;;;;16.75;8.40;;;1.60;99.90;;;;;;4991305;28;20038;-80
2021/01/06 08:24:30;;;;;;;18.13;8.82;;;1.70;99.90;;;;;;4997881;28;20045;-81
2021/01/06 08:26:58;;;;;;;16.65;7.63;;;1.60;99.90;;;;;;4994295;28;20111;-78
2021/01/06 08:29:27;;;;;;;18.15;8.55;;;1.60;99.90;;;;;;4986564;28;20124;-79
2021/01/06 08:32:16;;;;;;;16.42;8.93;;;1.50;99.90;;;;;;4987127;28;20042;-79
2021/01/06 08:34:56;;;;;;;17.85;8.48;;;1.50;99.90;;;;;;4986879;28;20056;-79
2021/01/06 08:37:24;;;;;;;17.95;8.60;;;1.60;99.90;;;;;;4982215;28;20038;-80
2021/01/06 08:39:52;;;;;;;14.73;7.97;;;1.60;99.90;;;;;;4990945;28;20044;-81
2021/01/06 08:42:20;;;;;;;15.50;7.85;;;1.60;99.90;;;;;;5003056;28;20114;-80
2021/01/06 08:45:17;;;;;;;18.45;9.18;;;1.60;99.90;;;;;;5003764;28;20034;-80
2021/01/06 08:47:42;;;;;;;15.98;8.73;;;1.60;99.90;;;;;;5001767;28;20109;-81
2021/01/06 08:50:11;;;;;;;15.02;8.18;;;1.60;99.90;;;;;;5003141;28;20034;-81
2021/01/06 08:52:38;;;;;;;15.50;8.02;;;1.60;99.90;;;;;;5002559;28;20805;-79
2021/01/06 08:55:17;;;;;;;16.17;8.43;;;1.70;99.90;;;;;;5003711;28;20191;-80
2021/01/06 08:57:42;;;;;;;17.48;9.10;;;1.70;99.90;;;;;;5004417;28;20045;-81
2021/01/06 09:00:15;;;;;;;17.75;9.43;;;1.70;99.90;;;;;;5004392;28;20046;-82
2021/01/06 09:02:49;;;;;;;16.63;8.82;;;1.60;99.90;;;;;;5002133;28;20092;-82
2021/01/06 09:05:43;;;;;;;19.63;9.57;;;1.70;99.90;;;;;;4999891;28;20049;-81
2021/01/06 09:08:30;;;;;;;17.95;8.63;;;1.70;99.90;;;;;;4996582;28;20126;-83
2021/01/06 09:11:17;;;;;;;18.65;8.90;;;1.60;99.90;;;;;;4998753;28;20567;-81
2021/01/06 09:13:45;;;;;;;15.68;8.75;;;1.70;99.90;;;;;;5019445;28;20614;-81
2021/01/06 09:16:35;;;;;;;17.27;8.43;;;1.70;99.90;;;;;;5000472;28;20401;-79
2021/01/06 09:19:31;;;;;;;16.50;8.25;;;1.60;99.90;;;;;;4984744;28;20049;-80
2021/01/06 09:21:58;;;;;;;17.70;8.63;;;1.70;99.90;;;;;;4982435;28;20470;-84
2021/01/06 09:24:36;;;;;;;15.80;8.88;;;1.60;99.90;;;;;;4979700;28;20053;-83
2021/01/06 09:27:34;;;;;;;17.80;9.00;;;1.70;99.90;;;;;;4996461;28;20030;-82
2021/01/06 09:30:02;;;;;;;16.45;7.88;;;1.70;99.90;;;;;;4990316;28;20103;-83
2021/01/06 09:32:32;;;;;;;18.40;9.13;;;1.70;99.90;;;;;;5002457;28;20692;-82
2021/01/06 09:35:02;;;;;;;17.02;9.38;;;1.70;99.90;;;;;;4998896;28;20057;-82
2021/01/06 09:37:30;;;;;;;17.67;8.85;;;1.80;99.90;;;;;;4998698;28;20042;-83
2021/01/06 09:40:13;;;;;;;19.95;10.25;;;1.70;99.90;;;;;;5014292;28;20041;-82
2021/01/06 09:42:40;;;;;;;15.48;8.43;;;1.60;99.90;;;;;;4999920;28;20040;-83
2021/01/06 09:45:14;;;;;;;20.45;9.77;;;1.70;99.90;;;;;;5018651;28;20037;-83
2021/01/06 09:47:40;;;;;;;17.40;8.68;;;1.70;99.90;;;;;;5001680;28;20072;-85
2021/01/06 09:50:20;;;;;;;18.10;9.00;;;1.70;99.90;;;;;;5003403;28;22505;-84
2021/01/06 09:52:49;;;;;;;16.17;9.18;;;1.70;99.90;;;;;;5010642;28;20225;-87
2021/01/06 09:55:19;;;;;;;16.63;8.60;;;1.60;99.90;;;;;;5024741;28;20041;-86
2021/01/06 09:57:47;;;;;;;16.80;9.38;;;1.60;99.90;;;;;;5028597;28;20053;-83
2021/01/06 10:00:35;;;;;;;17.58;9.32;;;1.70;99.90;;;;;;5032165;28;20049;-87
2021/01/06 10:03:01;;;;;;;22.58;9.95;;;1.70;99.90;;;;;;5026441;28;20465;-86
2021/01/06 10:05:45;;;;;;;18.30;9.75;;;1.60;99.90;;;;;;5030051;28;20152;-83
2021/01/06 10:08:26;;;;;;;20.10;10.05;;;1.60;99.90;;;;;;5029850;28;20041;-86
2021/01/06 10:10:58;;;;;;;18.85;10.68;;;1.60;99.90;;;;;;5030898;28;20075;-84
2021/01/06 10:13:52;;;;;;;16.50;8.88;;;1.70;99.90;;;;;;5031990;28;20053;-86
2021/01/06 10:16:25;;;;;;;20.02;10.05;;;1.60;99.90;;;;;;5009035;28;20569;-86
2021/01/06 10:19:11;;;;;;;17.92;9.27;;;1.70;99.90;;;;;;5021067;28;20038;-83
2021/01/06 10:22:07;;;;;;;17.05;9.07;;;1.80;99.90;;;;;;5003879;28;20594;-83
2021/01/06 10:24:54;;;;;;;18.63;10.05;;;1.70;99.90;;;;;;4987643;28;20117;-83
2021/01/06 10:27:31;;;;;;;16.58;9.32;;;1.80;99.90;;;;;;4972423;28;20042;-83
2021/01/06 10:30:11;;;;;;;21.52;9.55;;;1.90;99.90;;;;;;4976759;28;20073;-83
2021/01/06 10:32:45;;;;;;;16.35;9.18;;;1.90;99.90;;;;;;4976905;28;20030;-89
2021/01/06 10:35:36;;;;;;;17.50;9.45;;;1.80;99.90;;;;;;4970672;28;20933;-81
2021/01/06 10:38:26;;;;;;;19.30;10.63;;;1.80;99.90;;;;;;4975313;28;20073;-82
2021/01/06 10:40:55;;;;;;;20.58;10.02;;;1.90;99.90;;;;;;4982280;28;20152;-82
2021/01/06 10:43:41;;;;;;;16.95;9.07;;;1.80;99.90;;;;;;4976853;28;20042;-81
2021/01/06 10:46:36;;;;;;;18.48;9.73;;;1.80;99.90;;;;;;4992031;28;20049;-81
2021/01/06 10:49:11;;;;;;;22.23;11.45;;;1.90;99.90;;;;;;4978691;28;20045;-82
2021/01/06 10:51:55;;;;;;;20.48;10.32;;;1.90;99.90;;;;;;4969459;28;20056;-82
2021/01/06 10:54:49;;;;;;;16.83;9.90;;;1.90;99.90;;;;;;4977133;28;20038;-83
2021/01/06 10:57:15;;;;;;;17.83;9.82;;;1.90;99.90;;;;;;4993558;28;20624;-80
2021/01/06 11:00:00;;;;;;;15.50;8.38;;;1.90;99.90;;;;;;4996739;28;20048;-80
2021/01/06 11:02:36;;;;;;;21.88;10.63;;;1.90;99.90;;;;;;4998619;28;20065;-80
2021/01/06 11:05:16;;;;;;;18.15;10.10;;;1.80;99.90;;;;;;4998770;28;20044;-80
2021/01/06 11:07:56;;;;;;;18.25;9.90;;;1.90;99.90;;;;;;4999075;28;20041;-80
2021/01/06 11:10:49;;;;;;;19.25;9.75;;;1.80;99.90;;;;;;4993283;28;20230;-81
2021/01/06 11:13:25;;;;;;;19.08;10.45;;;1.80;99.90;;;;;;4994194;28;20042;-81
2021/01/06 11:16:05;;;;;;;20.50;10.23;;;1.80;99.90;;;;;;5002854;28;20042;-80
2021/01/06 11:18:37;;;;;;;22.25;11.00;;;1.80;99.90;;;;;;4988297;28;20058;-79
2021/01/06 11:21:07;;;;;;;21.90;11.30;;;1.70;99.90;;;;;;4989322;28;20250;-83
2021/01/06 11:23:42;;;;;;;22.02;11.52;;;1.70;99.90;;;;;;4981663;28;20117;-81
2021/01/06 11:26:20;;;;;;;25.13;11.23;;;1.70;99.90;;;;;;4978280;28;22139;-78
2021/01/06 11:29:07;;;;;;;21.38;10.43;;;1.70;99.90;;;;;;4983117;28;20048;-78
2021/01/06 11:31:35;;;;;;;22.67;10.23;;;1.70;99.90;;;;;;4980925;28;20053;-80
2021/01/06 11:34:10;;;;;;;20.73;10.07;;;1.70;99.90;;;;;;4990119;28;20057;-80
2021/01/06 11:36:51;;;;;;;21.20;11.43;;;1.80;99.90;;;;;;4974693;28;20048;-80
2021/01/06 11:39:36;;;;;;;21.52;11.20;;;1.70;99.90;;;;;;4996940;28;20030;-79
2021/01/06 11:42:20;;;;;;;23.65;11.20;;;1.80;99.90;;;;;;4974173;28;20095;-79
2021/01/06 11:45:07;;;;;;;24.52;12.30;;;1.80;99.90;;;;;;4980795;28;20762;-87
2021/01/06 11:47:46;;;;;;;22.45;11.85;;;1.80;99.90;;;;;;4981739;28;20030;-86
2021/01/06 11:50:33;;;;;;;24.52;11.80;;;1.80;99.90;;;;;;4984125;28;22349;-84
2021/01/06 11:53:16;;;;;;;24.50;11.63;;;1.80;99.90;;;;;;5014418;28;21157;-85
2021/01/06 11:55:49;;;;;;;23.90;12.40;;;1.80;99.90;;;;;;4998947;28;20108;-83
2021/01/06 11:58:30;;;;;;;22.58;10.98;;;1.90;99.90;;;;;;4998079;28;20042;-84
2021/01/06 12:01:33;;;;;;;24.48;13.07;;;2.00;99.90;;;;;;4985890;28;20049;-84
2021/01/06 12:04:13;;;;;;;22.35;11.18;;;1.90;99.90;;;;;;4978784;28;21131;-86
2021/01/06 12:06:56;;;;;;;29.38;12.73;;;1.90;99.90;;;;;;4977056;28;20507;-83
2021/01/06 12:09:41;;;;;;;25.00;12.40;;;1.90;99.90;;;;;;4980401;28;20193;-81
2021/01/06 12:12:30;;;;;;;;;;;1.90;99.90;;;;;;5008685;28;20138;-86
2021/01/06 12:15:01;;;;;;;25.77;11.65;;;1.80;99.90;;;;;;5002723;28;19932;-88
2021/01/06 12:17:38;;;;;;;23.98;11.90;;;1.90;99.90;;;;;;5004077;28;20090;-83
2021/01/06 12:20:34;;;;;;;25.48;14.13;;;1.80;99.90;;;;;;4997381;28;20840;-82
2021/01/06 12:23:15;;;;;;;29.98;12.68;;;1.90;99.90;;;;;;5002741;28;20056;-81
2021/01/06 12:25:46;;;;;;;29.98;14.25;;;1.90;99.90;;;;;;5002438;28;20570;-82
2021/01/06 12:28:34;;;;;;;25.80;13.25;;;1.90;99.90;;;;;;4998750;28;20705;-82
2021/01/06 12:31:23;;;;;;;27.20;13.32;;;1.80;99.90;;;;;;4982181;28;21935;-81
2021/01/06 12:34:20;;;;;;;28.70;13.48;;;1.80;99.90;;;;;;4985932;28;20053;-80
2021/01/06 12:37:20;;;;;;;23.80;12.35;;;1.80;99.90;;;;;;4996020;28;20049;-80
2021/01/06 12:39:58;;;;;;;23.27;12.48;;;1.90;99.90;;;;;;4972440;28;20049;-81
2021/01/06 12:42:29;;;;;;;22.58;12.70;;;2.00;99.90;;;;;;5006749;28;20041;-79
2021/01/06 12:45:13;;;;;;;23.13;12.07;;;1.90;99.90;;;;;;4988397;28;20049;-82
2021/01/06 12:48:08;;;;;;;23.33;12.60;;;2.00;99.90;;;;;;5001393;28;20038;-81
2021/01/06 12:50:48;;;;;;;20.95;10.95;;;2.00;99.90;;;;;;5000852;28;20059;-83
2021/01/06 12:53:23;;;;;;;25.42;11.65;;;2.00;99.90;;;;;;4999324;28;20608;-82
2021/01/06 12:56:07;;;;;;;;;;;2.10;99.90;;;;;;5002336;28;20075;-80
2021/01/06 12:58:58;;;;;;;19.60;9.77;;;2.10;99.90;;;;;;5005672;28;19956;-82
2021/01/06 13:01:33;;;;;;;21.55;10.65;;;2.00;99.90;;;;;;5012258;28;20045;-83
2021/01/06 13:04:05;;;;;;;19.13;10.55;;;2.00;99.90;;;;;;5009392;28;20713;-81
2021/01/06 13:06:55;;;;;;;59.03;17.83;;;1.80;99.90;;;;;;5008639;28;20045;-81
2021/01/06 13:10:05;;;;;;;22.05;10.98;;;1.90;99.90;;;;;;5005705;28;20037;-81
2021/01/06 13:12:51;;;;;;;20.25;9.32;;;1.90;99.90;;;;;;4988574;28;20029;-80
2021/01/06 13:15:28;;;;;;;17.60;9.13;;;1.90;99.90;;;;;;5016125;28;20045;-82
2021/01/06 13:18:04;;;;;;;17.88;9.65;;;1.90;99.90;;;;;;5016027;28;20033;-81
2021/01/06 13:20:44;;;;;;;21.05;11.23;;;1.80;99.90;;;;;;5009954;28;20828;-79
2021/01/06 13:24:01;;;;;;;16.48;8.20;;;1.90;99.90;;;;;;5003992;28;20075;-81
2021/01/06 13:26:57;;;;;;;18.23;9.80;;;1.80;99.90;;;;;;5004685;28;20133;-81